Weston, Colorado
Current Conditions -  °F | °C
As of 8:53 PM on Wednesday 28 Jan 2015 (Local Time) from KRTN Reporting Station
Clear Clear  
Wind Chill: 33°   Ceiling: Unl
Heat Index: 38°   Visibility: 10mi
Dew Point: 25°   Wind: 7mph
Humidity: 60%   Direction: 10°N
Pressure: 30.23"   Gusts: NA
Location:  37.14°N, 104.85°W
Report Text: KRTN 290353Z AUTO 01006KT 10SM CLR 03/M04 A3023 RMK AO2 SLP218 T00331039
Loading
Personal Weather Stations






























Interactive Weather Map New forecast layout! Learn more

10-Day Weather Forecast

Advertisements
Track Severe Weather on mobile